Time;durP1;ratioP1;P1;durP2;ratioP2;P2;SDS_P1;SDS_P2;PMS_P1;PMS_P2;Temp;Humidity;BMP_temperature;BMP_pressure;BME280_temperature;BME280_humidity;BME280_pressure;Samples;Min_cycle;Max_cycle;Signal;HPM_P1;HPM_P2
2023/12/17 00:01:56;;;;;;;49.15;25.33;;;7.70;99.90;;;;;;4884733;29;20264;-81
2023/12/17 00:04:23;;;;;;;49.88;26.55;;;7.60;99.90;;;;;;4875865;29;20055;-79
2023/12/17 00:06:50;;;;;;;57.38;27.13;;;7.60;99.90;;;;;;4913734;29;20036;-79
2023/12/17 00:09:17;;;;;;;47.03;24.23;;;7.70;99.90;;;;;;4908434;29;20065;-80
2023/12/17 00:11:43;;;;;;;56.92;26.80;;;7.60;99.90;;;;;;4898395;29;20060;-79
2023/12/17 00:14:14;;;;;;;49.08;24.88;;;7.60;99.90;;;;;;4887840;29;20066;-80
2023/12/17 00:16:41;;;;;;;50.70;25.15;;;7.70;99.90;;;;;;4880663;29;20135;-81
2023/12/17 00:19:08;;;;;;;48.90;25.88;;;7.70;99.90;;;;;;4884333;29;20079;-81
2023/12/17 00:21:35;;;;;;;47.92;23.00;;;7.60;99.90;;;;;;4872143;29;20563;-80
2023/12/17 00:24:02;;;;;;;45.13;21.95;;;7.60;99.90;;;;;;4883490;29;20054;-81
2023/12/17 00:26:29;;;;;;;46.65;22.88;;;7.70;99.90;;;;;;4898495;29;20100;-79
2023/12/17 00:28:55;;;;;;;39.97;21.50;;;7.60;99.90;;;;;;4867122;29;20060;-80
2023/12/17 00:31:22;;;;;;;36.90;20.90;;;7.60;99.90;;;;;;4867905;29;20051;-79
2023/12/17 00:33:49;;;;;;;42.50;23.85;;;7.60;99.90;;;;;;4880465;29;20063;-79
2023/12/17 00:36:16;;;;;;;46.40;23.52;;;7.70;99.90;;;;;;4914009;29;20052;-81
2023/12/17 00:38:43;;;;;;;41.60;21.88;;;7.70;99.90;;;;;;4901041;29;20048;-80
2023/12/17 00:41:11;;;;;;;42.60;22.38;;;7.70;99.90;;;;;;4882849;29;20759;-79
2023/12/17 00:43:38;;;;;;;35.28;18.45;;;7.70;99.90;;;;;;4896795;29;20185;-80
2023/12/17 00:46:05;;;;;;;36.72;22.17;;;7.70;99.90;;;;;;4885500;29;20249;-82
2023/12/17 00:48:32;;;;;;;44.25;23.55;;;7.70;99.90;;;;;;4880379;29;20055;-82
2023/12/17 00:50:59;;;;;;;40.10;21.67;;;7.60;99.90;;;;;;4871603;29;20078;-78
2023/12/17 00:53:26;;;;;;;42.88;23.42;;;7.70;99.90;;;;;;4898851;29;20052;-78
2023/12/17 00:55:53;;;;;;;43.70;23.15;;;7.70;99.90;;;;;;4892184;29;20036;-79
2023/12/17 00:58:19;;;;;;;40.40;21.85;;;7.70;99.90;;;;;;4912784;29;20087;-79
2023/12/17 01:00:46;;;;;;;35.28;18.50;;;7.60;99.90;;;;;;4883529;29;20105;-78
2023/12/17 01:03:21;;;;;;;36.80;20.35;;;7.60;99.90;;;;;;4884842;29;20058;-79
2023/12/17 01:05:49;;;;;;;43.38;22.30;;;7.60;99.90;;;;;;4868441;29;20048;-78
2023/12/17 01:08:16;;;;;;;42.30;22.42;;;7.60;99.90;;;;;;4887753;29;20135;-78
2023/12/17 01:10:43;;;;;;;39.58;18.48;;;7.60;99.90;;;;;;4885554;29;20521;-81
2023/12/17 01:13:09;;;;;;;39.70;20.80;;;7.60;99.90;;;;;;4868656;29;20589;-79
2023/12/17 01:15:37;;;;;;;42.67;21.67;;;7.60;99.90;;;;;;4877512;29;20059;-80
2023/12/17 01:18:04;;;;;;;40.17;22.15;;;7.60;99.90;;;;;;4896600;29;20055;-80
2023/12/17 01:20:31;;;;;;;33.90;18.45;;;7.60;99.90;;;;;;4868141;29;20139;-79
2023/12/17 01:22:58;;;;;;;41.95;22.40;;;7.60;99.90;;;;;;4880852;29;20044;-78
2023/12/17 01:25:25;;;;;;;35.80;19.38;;;7.50;99.90;;;;;;4864284;29;20068;-78
2023/12/17 01:27:52;;;;;;;39.88;20.52;;;7.60;99.90;;;;;;4901306;29;20123;-80
2023/12/17 01:30:19;;;;;;;40.50;21.85;;;7.60;99.90;;;;;;4885394;29;20654;-80
2023/12/17 01:32:46;;;;;;;32.80;15.40;;;7.60;99.90;;;;;;4884335;29;20136;-78
2023/12/17 01:35:13;;;;;;;40.45;21.42;;;7.60;99.90;;;;;;4895146;29;20506;-79
2023/12/17 01:37:39;;;;;;;38.03;19.92;;;7.50;99.90;;;;;;4901468;29;20048;-80
2023/12/17 01:40:08;;;;;;;42.58;20.10;;;7.50;99.90;;;;;;4871493;29;20542;-80
2023/12/17 01:42:35;;;;;;;38.30;19.85;;;7.50;99.90;;;;;;4884611;29;20059;-78
2023/12/17 01:45:02;;;;;;;40.05;20.88;;;7.60;99.90;;;;;;4883990;29;20040;-80
2023/12/17 01:47:29;;;;;;;41.33;22.48;;;7.50;99.90;;;;;;4881553;29;20055;-78
2023/12/17 01:49:56;;;;;;;45.80;20.05;;;7.50;99.90;;;;;;4903886;29;20618;-77
2023/12/17 01:52:23;;;;;;;37.70;21.17;;;7.50;99.90;;;;;;4909751;29;20075;-79
2023/12/17 01:54:50;;;;;;;41.45;21.30;;;7.50;99.90;;;;;;4894808;29;20232;-80
2023/12/17 01:57:17;;;;;;;44.65;21.98;;;7.60;99.90;;;;;;4896801;29;20040;-79
2023/12/17 01:59:46;;;;;;;47.60;21.25;;;7.60;99.90;;;;;;4882195;29;20052;-79
2023/12/17 02:02:13;;;;;;;43.20;20.08;;;7.60;99.90;;;;;;4895629;29;20139;-80
2023/12/17 02:04:40;;;;;;;46.28;21.08;;;7.60;99.90;;;;;;4878617;29;20056;-80
2023/12/17 02:07:07;;;;;;;51.20;24.13;;;7.60;99.90;;;;;;4910584;29;20040;-80
2023/12/17 02:09:34;;;;;;;46.03;23.52;;;7.60;99.90;;;;;;4866660;29;20131;-78
2023/12/17 02:12:01;;;;;;;49.60;22.77;;;7.60;99.90;;;;;;4906541;29;20044;-79
2023/12/17 02:14:28;;;;;;;52.78;23.45;;;7.60;99.90;;;;;;4867206;29;20075;-80
2023/12/17 02:16:54;;;;;;;56.28;23.70;;;7.60;99.90;;;;;;4876893;29;20052;-79
2023/12/17 02:19:21;;;;;;;48.75;22.98;;;7.60;99.90;;;;;;4870021;29;20071;-80
2023/12/17 02:21:49;;;;;;;56.65;24.33;;;7.50;99.90;;;;;;4882736;29;20117;-79
2023/12/17 02:24:16;;;;;;;52.63;23.75;;;7.50;99.90;;;;;;4873464;29;20044;-80
2023/12/17 02:26:43;;;;;;;49.55;23.05;;;7.50;99.90;;;;;;4877347;29;20067;-78
2023/12/17 02:29:10;;;;;;;50.88;24.33;;;7.50;99.90;;;;;;4878699;29;20075;-80
2023/12/17 02:31:37;;;;;;;49.90;24.65;;;7.50;99.90;;;;;;4884945;29;20550;-80
2023/12/17 02:34:04;;;;;;;44.85;22.38;;;7.50;99.90;;;;;;4899363;29;20184;-79
2023/12/17 02:36:31;;;;;;;47.83;24.55;;;7.50;99.90;;;;;;4896081;29;20048;-79
2023/12/17 02:38:58;;;;;;;41.67;22.80;;;7.60;99.90;;;;;;4898775;29;20055;-80
2023/12/17 02:41:24;;;;;;;44.47;21.55;;;7.60;99.90;;;;;;4896136;29;20135;-81
2023/12/17 02:43:51;;;;;;;41.80;21.50;;;7.60;99.90;;;;;;4904731;29;20058;-78
2023/12/17 02:46:18;;;;;;;45.40;21.40;;;7.60;99.90;;;;;;4868744;29;20095;-80
2023/12/17 02:48:45;;;;;;;38.28;19.35;;;7.60;99.90;;;;;;4880365;29;20907;-80
2023/12/17 02:51:14;;;;;;;40.75;21.40;;;7.60;99.90;;;;;;4893131;29;20059;-80
2023/12/17 02:53:41;;;;;;;44.28;22.67;;;7.60;99.90;;;;;;4878009;29;20056;-80
2023/12/17 02:56:08;;;;;;;37.75;19.00;;;7.60;99.90;;;;;;4863662;29;20044;-79
2023/12/17 02:58:37;;;;;;;37.53;18.95;;;7.60;99.90;;;;;;4879131;29;20052;-80
2023/12/17 03:01:04;;;;;;;42.33;21.48;;;7.60;99.90;;;;;;4883593;29;20044;-81
2023/12/17 03:03:31;;;;;;;42.67;20.58;;;7.70;99.90;;;;;;4883538;29;20044;-80
2023/12/17 03:05:58;;;;;;;41.70;20.98;;;7.70;99.90;;;;;;4891153;29;20061;-79
2023/12/17 03:08:25;;;;;;;45.83;22.15;;;7.70;99.90;;;;;;4935877;29;20107;-78
2023/12/17 03:10:52;;;;;;;45.35;22.73;;;7.80;99.90;;;;;;4911222;29;21063;-79
2023/12/17 03:13:19;;;;;;;43.70;21.63;;;7.80;99.90;;;;;;4909361;29;20055;-77
2023/12/17 03:15:46;;;;;;;42.50;21.08;;;7.70;99.90;;;;;;4887389;29;20044;-79
2023/12/17 03:18:13;;;;;;;46.38;20.60;;;7.80;99.90;;;;;;4877117;29;20174;-80
2023/12/17 03:20:40;;;;;;;37.85;21.45;;;7.70;99.90;;;;;;4902831;29;20044;-80
2023/12/17 03:23:07;;;;;;;40.22;21.52;;;7.70;99.90;;;;;;4870895;29;20092;-80
2023/12/17 03:25:34;;;;;;;40.60;20.23;;;7.70;99.90;;;;;;4895690;29;20052;-79
2023/12/17 03:28:01;;;;;;;35.08;19.77;;;7.70;99.90;;;;;;4885299;29;20049;-80
2023/12/17 03:30:28;;;;;;;41.92;20.67;;;7.70;99.90;;;;;;4898464;29;20075;-79
2023/12/17 03:32:55;;;;;;;43.17;22.13;;;7.70;99.90;;;;;;4882372;29;20147;-78
2023/12/17 03:35:22;;;;;;;37.90;18.98;;;7.70;99.90;;;;;;4915505;29;20055;-78
2023/12/17 03:37:49;;;;;;;42.40;20.05;;;7.70;99.90;;;;;;4883487;29;20082;-78
2023/12/17 03:40:16;;;;;;;36.92;19.73;;;7.70;99.90;;;;;;4886866;29;20465;-80
2023/12/17 03:42:43;;;;;;;38.53;19.20;;;7.80;99.90;;;;;;4909004;29;20052;-79
2023/12/17 03:45:10;;;;;;;33.67;18.33;;;7.80;99.90;;;;;;4895571;29;20133;-78
2023/12/17 03:47:45;;;;;;;37.60;20.70;;;7.80;99.90;;;;;;4894949;29;20071;-80
2023/12/17 03:50:12;;;;;;;;;;;7.80;99.90;;;;;;4882366;29;20118;-80
2023/12/17 03:52:38;;;;;;;40.28;19.23;;;7.80;99.90;;;;;;4886866;29;19931;-80
2023/12/17 03:55:06;;;;;;;32.70;18.88;;;7.80;99.90;;;;;;4893425;29;20135;-81
2023/12/17 03:57:33;;;;;;;35.00;20.17;;;7.80;99.90;;;;;;4890773;29;20040;-79
2023/12/17 04:00:01;;;;;;;35.78;21.27;;;7.80;99.90;;;;;;4884743;29;20052;-80
2023/12/17 04:02:31;;;;;;;36.97;18.98;;;7.80;99.90;;;;;;4885050;29;20059;-80
2023/12/17 04:05:00;;;;;;;38.63;19.15;;;7.80;99.90;;;;;;4895883;29;20056;-79
2023/12/17 04:07:28;;;;;;;30.98;17.05;;;7.80;99.90;;;;;;4886931;29;20055;-78
2023/12/17 04:09:56;;;;;;;32.92;18.30;;;7.80;99.90;;;;;;4882278;29;20138;-79
2023/12/17 04:12:23;;;;;;;34.92;17.95;;;7.80;99.90;;;;;;4870107;29;20654;-80
2023/12/17 04:14:50;;;;;;;36.55;19.13;;;7.90;99.90;;;;;;4890686;29;20510;-80
2023/12/17 04:17:17;;;;;;;36.92;18.92;;;7.90;99.90;;;;;;4892484;29;20119;-79
2023/12/17 04:19:44;;;;;;;38.53;18.73;;;7.90;99.90;;;;;;4888742;29;20056;-79
2023/12/17 04:22:12;;;;;;;36.13;17.75;;;7.80;99.90;;;;;;4886169;29;20036;-79
2023/12/17 04:24:39;;;;;;;34.42;18.52;;;7.90;99.90;;;;;;4896466;29;20135;-80
2023/12/17 04:27:06;;;;;;;34.65;18.95;;;7.90;99.90;;;;;;4878961;29;20041;-80
2023/12/17 04:29:33;;;;;;;36.03;18.33;;;7.90;99.90;;;;;;4887672;29;20080;-80
2023/12/17 04:32:00;;;;;;;36.42;18.45;;;7.90;99.90;;;;;;4894826;29;20056;-78
2023/12/17 04:34:27;;;;;;;34.20;16.90;;;7.90;99.90;;;;;;4910955;29;20051;-81
2023/12/17 04:36:58;;;;;;;33.45;18.73;;;7.90;99.90;;;;;;4898934;29;20048;-80
2023/12/17 04:39:25;;;;;;;34.55;19.30;;;7.90;99.90;;;;;;4899410;29;20064;-78
2023/12/17 04:41:53;;;;;;;34.90;18.15;;;7.90;99.90;;;;;;4884709;29;20048;-80
2023/12/17 04:44:19;;;;;;;38.08;18.63;;;7.90;99.90;;;;;;4879242;29;20048;-79
2023/12/17 04:46:46;;;;;;;33.92;19.17;;;7.90;99.90;;;;;;4892968;29;20056;-80
2023/12/17 04:49:14;;;;;;;34.33;19.23;;;8.00;99.90;;;;;;4910319;29;20054;-78
2023/12/17 04:51:41;;;;;;;29.90;17.42;;;7.90;99.90;;;;;;4898061;29;20266;-78
2023/12/17 04:54:08;;;;;;;31.20;17.83;;;7.90;99.90;;;;;;4876090;29;20107;-80
2023/12/17 04:56:34;;;;;;;33.88;17.88;;;8.00;99.90;;;;;;4884869;29;20047;-79
2023/12/17 04:59:01;;;;;;;30.83;17.30;;;8.00;99.90;;;;;;4878973;29;20495;-78
2023/12/17 05:01:28;;;;;;;29.05;15.75;;;8.00;99.90;;;;;;4867092;29;20577;-78
2023/12/17 05:03:55;;;;;;;24.33;15.02;;;8.00;99.90;;;;;;4884082;29;20052;-81
2023/12/17 05:06:22;;;;;;;28.88;16.70;;;8.00;99.90;;;;;;4888693;29;20072;-81
2023/12/17 05:08:49;;;;;;;25.85;14.98;;;8.00;99.90;;;;;;4888448;29;20048;-80
2023/12/17 05:11:16;;;;;;;26.48;15.77;;;7.90;99.90;;;;;;4892542;29;20056;-79
2023/12/17 05:13:43;;;;;;;27.30;14.77;;;8.00;99.90;;;;;;4885214;29;20059;-80
2023/12/17 05:16:10;;;;;;;29.25;15.98;;;8.00;99.90;;;;;;4875669;29;20041;-80
2023/12/17 05:18:37;;;;;;;27.35;15.82;;;8.00;99.90;;;;;;4887934;29;20048;-80
2023/12/17 05:21:04;;;;;;;27.50;15.20;;;8.00;99.90;;;;;;4894053;29;20487;-79
2023/12/17 05:23:31;;;;;;;30.35;16.33;;;7.90;99.90;;;;;;4884826;29;20075;-79
2023/12/17 05:25:59;;;;;;;30.17;15.95;;;8.00;99.90;;;;;;4894843;29;20067;-81
2023/12/17 05:28:27;;;;;;;29.13;16.23;;;7.90;99.90;;;;;;4884140;29;20063;-80
2023/12/17 05:30:54;;;;;;;26.90;16.33;;;7.90;99.90;;;;;;4895606;29;20043;-81
2023/12/17 05:33:22;;;;;;;27.42;15.77;;;7.90;99.90;;;;;;4876843;29;20068;-80
2023/12/17 05:35:49;;;;;;;28.35;15.95;;;7.90;99.90;;;;;;4884483;29;20635;-79
2023/12/17 05:38:28;;;;;;;27.02;15.98;;;7.90;99.90;;;;;;4884138;29;20040;-81
2023/12/17 05:40:55;;;;;;;22.95;14.38;;;8.00;99.90;;;;;;4885605;29;20071;-80
2023/12/17 05:43:22;;;;;;;27.75;15.95;;;7.90;99.90;;;;;;4881354;29;20048;-80
2023/12/17 05:45:49;;;;;;;26.02;16.33;;;7.90;99.90;;;;;;4882413;29;20058;-79
2023/12/17 05:48:24;;;;;;;29.52;16.65;;;8.00;99.90;;;;;;4866812;29;20147;-81
2023/12/17 05:50:52;;;;;;;23.13;14.50;;;8.00;99.90;;;;;;4871721;29;20284;-79
2023/12/17 05:53:18;;;;;;;23.88;14.90;;;8.00;99.90;;;;;;4884787;29;20048;-80
2023/12/17 05:55:49;;;;;;;24.63;15.43;;;7.90;99.90;;;;;;4878851;29;20135;-80
2023/12/17 05:58:16;;;;;;;25.95;16.92;;;8.00;99.90;;;;;;4910525;29;20040;-80
2023/12/17 06:00:42;;;;;;;27.02;16.42;;;8.00;99.90;;;;;;4884298;29;20036;-80
2023/12/17 06:03:09;;;;;;;26.40;16.77;;;8.00;99.90;;;;;;4860244;29;20641;-79
2023/12/17 06:05:36;;;;;;;29.48;16.95;;;8.00;99.90;;;;;;4903627;29;20044;-80
2023/12/17 06:08:03;;;;;;;30.75;20.02;;;8.00;99.90;;;;;;4878252;29;20047;-80
2023/12/17 06:10:30;;;;;;;27.55;17.65;;;8.00;99.90;;;;;;4910620;29;20068;-79
2023/12/17 06:12:57;;;;;;;25.85;15.38;;;8.00;99.90;;;;;;4873385;29;20051;-86
2023/12/17 06:15:24;;;;;;;23.42;16.20;;;7.90;99.90;;;;;;4887267;29;20052;-85
2023/12/17 06:17:51;;;;;;;23.65;14.27;;;7.90;99.90;;;;;;4897212;29;20644;-84
2023/12/17 06:20:18;;;;;;;26.92;16.00;;;8.00;99.90;;;;;;4896544;29;20503;-86
2023/12/17 06:22:45;;;;;;;23.67;14.63;;;7.90;99.90;;;;;;4874544;29;20055;-87
2023/12/17 06:25:12;;;;;;;23.85;15.50;;;7.90;99.90;;;;;;4889065;29;20310;-84
2023/12/17 06:27:38;;;;;;;21.10;14.48;;;7.90;99.90;;;;;;4905201;29;20103;-86
2023/12/17 06:30:07;;;;;;;20.45;13.90;;;7.90;99.90;;;;;;4886495;29;20435;-91
2023/12/17 06:32:34;;;;;;;23.00;15.13;;;7.90;99.90;;;;;;4890248;29;20052;-85
2023/12/17 06:35:01;;;;;;;21.95;14.98;;;7.90;99.90;;;;;;4894846;29;20103;-87
2023/12/17 06:37:28;;;;;;;21.98;14.88;;;7.90;99.90;;;;;;4899558;29;20044;-85
2023/12/17 06:39:57;;;;;;;17.33;13.13;;;7.90;99.90;;;;;;4897290;29;20507;-91
2023/12/17 06:42:24;;;;;;;21.88;14.38;;;7.90;99.90;;;;;;4897329;29;20040;-85
2023/12/17 06:44:51;;;;;;;20.05;13.52;;;7.90;99.90;;;;;;4901772;29;20051;-86
2023/12/17 06:47:18;;;;;;;21.52;14.82;;;7.90;99.90;;;;;;4899451;29;20048;-83
2023/12/17 06:49:54;;;;;;;20.02;14.35;;;7.90;99.90;;;;;;4882940;29;20326;-84
2023/12/17 06:52:21;;;;;;;22.50;14.88;;;7.90;99.90;;;;;;4898598;29;20135;-84
2023/12/17 06:54:48;;;;;;;24.92;16.15;;;7.90;99.90;;;;;;4910886;29;20044;-86
2023/12/17 06:57:15;;;;;;;18.77;13.65;;;7.90;99.90;;;;;;4892305;29;20044;-85
2023/12/17 06:59:42;;;;;;;23.25;13.70;;;7.80;99.90;;;;;;4898623;29;20051;-85
2023/12/17 07:02:09;;;;;;;18.50;13.43;;;7.90;99.90;;;;;;4897326;29;20044;-87
2023/12/17 07:04:36;;;;;;;18.08;13.15;;;7.80;99.90;;;;;;4896964;29;20052;-85
2023/12/17 07:07:03;;;;;;;19.08;13.75;;;7.80;99.90;;;;;;4906291;29;20055;-87
2023/12/17 07:09:30;;;;;;;20.70;14.60;;;7.80;99.90;;;;;;4895668;29;20092;-87
2023/12/17 07:11:57;;;;;;;17.08;12.63;;;7.90;99.90;;;;;;4910223;29;20048;-84
2023/12/17 07:14:24;;;;;;;21.13;14.70;;;7.80;99.90;;;;;;4903457;29;20072;-87
2023/12/17 07:16:52;;;;;;;22.45;15.75;;;7.80;99.90;;;;;;4900979;29;20047;-87
2023/12/17 07:19:20;;;;;;;26.00;16.35;;;7.80;99.90;;;;;;4907626;29;20056;-85
2023/12/17 07:21:47;;;;;;;25.77;14.75;;;7.80;99.90;;;;;;4910013;29;20139;-87
2023/12/17 07:24:14;;;;;;;20.90;14.88;;;7.80;99.90;;;;;;4901361;29;20047;-84
2023/12/17 07:26:41;;;;;;;15.55;11.70;;;7.80;99.90;;;;;;4895078;29;20056;-91
2023/12/17 07:29:08;;;;;;;16.52;12.85;;;7.80;99.90;;;;;;4884010;29;20111;-81
2023/12/17 07:31:35;;;;;;;16.77;13.27;;;7.80;99.90;;;;;;4871354;29;20135;-79
2023/12/17 07:34:02;;;;;;;15.00;13.27;;;7.80;99.90;;;;;;4884711;29;20056;-80
2023/12/17 07:36:29;;;;;;;17.85;13.93;;;7.80;99.90;;;;;;4886516;29;20052;-80
2023/12/17 07:38:56;;;;;;;15.63;12.75;;;7.70;99.90;;;;;;4898859;29;20073;-80
2023/12/17 07:41:23;;;;;;;18.35;13.73;;;7.70;99.90;;;;;;4880185;29;20522;-80
2023/12/17 07:43:50;;;;;;;14.82;12.18;;;7.70;99.90;;;;;;4883527;29;20500;-80
2023/12/17 07:46:16;;;;;;;19.02;15.65;;;7.70;99.90;;;;;;4875322;29;20127;-80
2023/12/17 07:48:43;;;;;;;15.68;12.80;;;7.70;99.90;;;;;;4877613;29;20095;-79
2023/12/17 07:51:11;;;;;;;16.00;13.13;;;7.70;99.90;;;;;;4894399;29;20673;-80
2023/12/17 07:53:37;;;;;;;15.93;12.70;;;7.70;99.90;;;;;;4885552;29;20147;-80
2023/12/17 07:56:08;;;;;;;16.55;13.85;;;7.70;99.90;;;;;;4877352;29;20041;-80
2023/12/17 07:58:35;;;;;;;17.73;14.10;;;7.70;99.90;;;;;;4901128;29;20052;-79
2023/12/17 08:01:02;;;;;;;13.07;11.75;;;7.70;99.90;;;;;;4890921;29;20451;-80
2023/12/17 08:03:29;;;;;;;13.52;12.20;;;7.80;99.90;;;;;;4888920;29;20063;-80
2023/12/17 08:05:57;;;;;;;16.45;14.85;;;7.80;99.90;;;;;;4897572;29;20044;-80
2023/12/17 08:08:24;;;;;;;16.63;15.02;;;7.80;99.90;;;;;;4883098;29;20255;-80
2023/12/17 08:10:50;;;;;;;14.90;13.32;;;7.80;99.90;;;;;;4883868;29;20108;-80
2023/12/17 08:13:17;;;;;;;14.57;13.07;;;7.70;99.90;;;;;;4864023;29;20044;-79
2023/12/17 08:15:45;;;;;;;14.80;13.40;;;7.70;99.90;;;;;;4899864;29;20135;-79
2023/12/17 08:18:12;;;;;;;16.23;14.63;;;7.70;99.90;;;;;;4886274;29;20044;-81
2023/12/17 08:20:39;;;;;;;16.95;15.52;;;7.60;99.90;;;;;;4873878;29;20055;-80
2023/12/17 08:23:06;;;;;;;18.42;16.80;;;7.60;99.90;;;;;;4870441;29;20060;-79
2023/12/17 08:25:38;;;;;;;17.88;16.23;;;7.70;99.90;;;;;;4892506;29;20064;-79
2023/12/17 08:28:05;;;;;;;16.30;15.05;;;7.60;99.90;;;;;;4896239;29;20052;-79
2023/12/17 08:30:32;;;;;;;16.63;15.43;;;7.60;99.90;;;;;;4884349;29;20053;-79
2023/12/17 08:32:59;;;;;;;17.75;16.23;;;7.60;99.90;;;;;;4892912;29;20052;-79
2023/12/17 08:35:26;;;;;;;16.45;15.10;;;7.70;99.90;;;;;;4880476;29;20055;-79
2023/12/17 08:37:59;;;;;;;16.73;15.32;;;7.60;99.90;;;;;;4904455;29;20131;-79
2023/12/17 08:40:26;;;;;;;17.33;15.93;;;7.60;99.90;;;;;;4883725;29;20897;-79
2023/12/17 08:42:53;;;;;;;16.67;15.20;;;7.70;99.90;;;;;;4873808;29;20056;-79
2023/12/17 08:45:19;;;;;;;17.58;16.10;;;7.60;99.90;;;;;;4878005;29;20411;-78
2023/12/17 08:47:46;;;;;;;15.20;14.00;;;7.60;99.90;;;;;;4893176;29;20104;-80
2023/12/17 08:50:13;;;;;;;20.17;18.38;;;7.70;99.90;;;;;;4881082;29;20107;-79
2023/12/17 08:52:40;;;;;;;16.42;15.02;;;7.70;99.90;;;;;;4906829;29;20040;-82
2023/12/17 08:55:07;;;;;;;18.45;16.75;;;7.70;99.90;;;;;;4881558;29;20472;-79
2023/12/17 08:57:34;;;;;;;16.23;14.88;;;7.70;99.90;;;;;;4875796;29;20974;-79
2023/12/17 09:00:03;;;;;;;16.90;15.43;;;7.70;99.90;;;;;;4882805;29;20559;-78
2023/12/17 09:02:30;;;;;;;17.02;15.52;;;7.80;99.90;;;;;;4879453;29;20131;-78
2023/12/17 09:04:57;;;;;;;17.80;16.20;;;7.80;99.90;;;;;;4910979;29;20507;-78
2023/12/17 09:07:24;;;;;;;18.92;17.13;;;7.70;99.90;;;;;;4878593;29;20044;-79
2023/12/17 09:09:51;;;;;;;16.65;15.25;;;7.80;99.90;;;;;;4896534;29;20055;-78
2023/12/17 09:12:18;;;;;;;17.50;16.05;;;7.80;99.90;;;;;;4870986;29;20053;-78
2023/12/17 09:14:45;;;;;;;17.30;15.77;;;7.80;99.90;;;;;;4883113;29;20143;-79
2023/12/17 09:17:12;;;;;;;18.50;16.75;;;7.80;99.90;;;;;;4905542;29;20171;-80
2023/12/17 09:19:39;;;;;;;19.35;17.38;;;7.80;99.90;;;;;;4898566;29;20087;-79
2023/12/17 09:22:06;;;;;;;19.15;17.45;;;7.80;99.90;;;;;;4883191;29;20190;-80
2023/12/17 09:24:33;;;;;;;19.42;17.92;;;7.80;99.90;;;;;;4874387;29;20052;-79
2023/12/17 09:27:04;;;;;;;19.23;17.42;;;7.80;99.90;;;;;;4881471;29;20044;-80
2023/12/17 09:29:32;;;;;;;20.60;18.55;;;7.80;99.90;;;;;;4882639;29;20076;-79
2023/12/17 09:31:59;;;;;;;17.77;16.17;;;7.70;99.90;;;;;;4898478;29;20651;-80
2023/12/17 09:34:29;;;;;;;18.25;16.65;;;7.60;99.90;;;;;;4879206;29;20519;-79
2023/12/17 09:36:56;;;;;;;18.38;16.98;;;7.70;99.90;;;;;;4894701;29;20036;-79
2023/12/17 09:39:25;;;;;;;19.58;17.98;;;7.70;99.90;;;;;;4899828;29;20056;-80
2023/12/17 09:41:53;;;;;;;20.17;18.48;;;7.80;99.90;;;;;;4912889;29;20060;-83
2023/12/17 09:44:20;;;;;;;20.13;18.33;;;7.80;99.90;;;;;;4930480;29;20072;-82
2023/12/17 09:46:47;;;;;;;20.80;19.20;;;7.80;99.90;;;;;;4895987;29;20036;-83
2023/12/17 09:49:14;;;;;;;19.50;17.90;;;7.80;99.90;;;;;;4938929;28;20059;-84
2023/12/17 09:51:47;;;;;;;21.40;19.40;;;7.90;99.90;;;;;;4928538;29;20111;-80
2023/12/17 09:54:14;;;;;;;19.38;17.88;;;7.80;99.90;;;;;;4878772;29;20044;-79
2023/12/17 09:56:46;;;;;;;17.30;16.10;;;7.80;99.90;;;;;;4887998;29;20055;-80
2023/12/17 09:59:13;;;;;;;19.65;18.05;;;7.80;99.90;;;;;;4883231;29;20053;-80
2023/12/17 10:01:40;;;;;;;18.52;17.15;;;7.80;99.90;;;;;;4890897;29;20054;-79
2023/12/17 10:04:08;;;;;;;21.65;19.85;;;7.70;99.90;;;;;;4883746;29;20058;-80
2023/12/17 10:06:34;;;;;;;21.40;19.70;;;7.70;99.90;;;;;;4887402;29;20523;-79
2023/12/17 10:09:04;;;;;;;20.20;18.65;;;7.70;99.90;;;;;;4876955;29;20206;-79
2023/12/17 10:11:34;;;;;;;18.75;17.45;;;7.70;99.90;;;;;;4883608;29;20044;-79
2023/12/17 10:14:01;;;;;;;20.25;18.58;;;7.70;99.90;;;;;;4886586;29;20056;-79
2023/12/17 10:16:28;;;;;;;20.60;19.05;;;7.80;99.90;;;;;;4892959;29;20051;-79
2023/12/17 10:18:55;;;;;;;19.35;18.05;;;7.70;99.90;;;;;;4892292;29;20056;-79
2023/12/17 10:21:22;;;;;;;22.60;20.70;;;7.80;99.90;;;;;;4883101;29;20712;-79
2023/12/17 10:23:52;;;;;;;21.15;19.55;;;7.80;99.90;;;;;;4875552;29;20431;-79
2023/12/17 10:26:20;;;;;;;20.33;18.92;;;7.80;99.90;;;;;;4910640;29;20036;-79
2023/12/17 10:28:51;;;;;;;24.27;22.25;;;7.80;99.90;;;;;;4907058;29;20474;-79
2023/12/17 10:31:21;;;;;;;22.60;20.80;;;7.80;99.90;;;;;;4902934;29;20051;-80
2023/12/17 10:34:01;;;;;;;24.15;22.30;;;7.90;99.90;;;;;;4873264;29;20507;-81
2023/12/17 10:36:28;;;;;;;20.38;18.90;;;7.90;99.90;;;;;;4885627;29;20072;-81
2023/12/17 10:38:57;;;;;;;27.73;24.88;;;8.00;99.90;;;;;;4887177;29;20048;-81
2023/12/17 10:41:25;;;;;;;24.50;22.45;;;8.10;99.90;;;;;;4886709;29;20469;-80
2023/12/17 10:43:54;;;;;;;22.75;21.05;;;8.30;99.90;;;;;;4899291;29;20058;-82
2023/12/17 10:46:22;;;;;;;26.52;24.33;;;8.40;99.90;;;;;;4890535;29;20048;-81
2023/12/17 10:48:49;;;;;;;25.98;24.08;;;8.40;99.90;;;;;;4884208;29;20059;-81
2023/12/17 10:51:18;;;;;;;22.60;21.00;;;8.50;99.90;;;;;;4901369;29;20052;-81
2023/12/17 10:53:45;;;;;;;23.75;22.15;;;8.70;99.90;;;;;;4885078;29;20052;-82
2023/12/17 10:56:14;;;;;;;27.33;25.23;;;8.90;99.90;;;;;;4902691;29;20044;-83
2023/12/17 10:58:42;;;;;;;27.85;25.85;;;9.10;99.90;;;;;;4906344;29;20777;-81
2023/12/17 11:01:10;;;;;;;27.05;25.08;;;9.30;99.90;;;;;;4903559;29;20080;-81
2023/12/17 11:03:37;;;;;;;27.45;25.48;;;9.20;99.90;;;;;;4902819;29;20073;-81
2023/12/17 11:06:05;;;;;;;29.63;27.38;;;9.20;99.90;;;;;;4896933;29;20055;-81
2023/12/17 11:08:35;;;;;;;29.23;27.23;;;9.30;99.90;;;;;;4923330;29;20043;-82
2023/12/17 11:11:03;;;;;;;28.48;26.48;;;9.30;99.90;;;;;;4906554;29;20060;-81
2023/12/17 11:13:29;;;;;;;29.42;27.10;;;9.30;99.90;;;;;;4899581;29;20055;-81
2023/12/17 11:15:56;;;;;;;29.58;27.27;;;9.20;99.90;;;;;;4896624;29;20071;-82
2023/12/17 11:18:40;;;;;;;30.40;27.90;;;9.00;99.90;;;;;;4895921;29;20064;-81
2023/12/17 11:21:08;;;;;;;28.73;26.37;;;9.00;99.90;;;;;;4893731;29;20048;-81
2023/12/17 11:23:35;;;;;;;28.00;25.90;;;8.90;99.90;;;;;;4903718;29;20309;-80
2023/12/17 11:26:02;;;;;;;29.63;27.52;;;9.10;99.90;;;;;;4906148;29;20047;-82
2023/12/17 11:28:30;;;;;;;27.63;25.42;;;9.10;99.90;;;;;;4902062;29;20517;-82
2023/12/17 11:30:58;;;;;;;27.05;25.15;;;9.00;99.90;;;;;;4901705;29;20167;-81
2023/12/17 11:33:25;;;;;;;28.35;26.25;;;9.00;99.90;;;;;;4888988;29;20201;-81
2023/12/17 11:35:53;;;;;;;29.85;27.67;;;9.10;99.90;;;;;;4903021;29;20052;-81
2023/12/17 11:38:21;;;;;;;28.60;26.27;;;9.10;99.90;;;;;;4911415;29;20048;-80
2023/12/17 11:40:48;;;;;;;27.83;25.83;;;9.20;99.90;;;;;;4894685;29;20127;-80
2023/12/17 11:43:15;;;;;;;29.65;27.42;;;9.20;99.90;;;;;;4893181;29;20099;-81
2023/12/17 11:45:46;;;;;;;30.60;28.30;;;9.30;99.90;;;;;;4886588;29;20067;-79
2023/12/17 11:48:16;;;;;;;28.48;26.38;;;9.20;99.90;;;;;;4883446;29;20049;-80
2023/12/17 11:50:46;;;;;;;28.88;26.65;;;9.20;99.90;;;;;;4898974;29;20055;-80
2023/12/17 11:53:14;;;;;;;30.48;27.88;;;9.20;99.90;;;;;;4900885;29;20056;-80
2023/12/17 11:56:03;;;;;;;30.05;27.55;;;9.30;99.90;;;;;;4876146;29;20056;-80
2023/12/17 11:58:30;;;;;;;32.83;29.92;;;9.40;99.90;;;;;;4880995;29;20071;-79
2023/12/17 12:01:03;;;;;;;32.55;29.77;;;9.30;99.90;;;;;;4883317;29;20050;-80
2023/12/17 12:03:30;;;;;;;28.67;26.27;;;9.40;99.90;;;;;;4864537;29;20056;-80
2023/12/17 12:06:06;;;;;;;28.35;26.23;;;9.40;99.90;;;;;;4896277;29;20322;-79
2023/12/17 12:08:35;;;;;;;30.10;27.63;;;9.30;99.90;;;;;;4882096;29;20058;-79
2023/12/17 12:11:03;;;;;;;28.98;26.55;;;9.40;99.90;;;;;;4896335;29;20044;-79
2023/12/17 12:13:31;;;;;;;29.98;27.58;;;9.50;99.90;;;;;;4878931;29;20056;-78
2023/12/17 12:15:59;;;;;;;30.48;28.05;;;9.70;99.90;;;;;;4865724;29;20052;-80
2023/12/17 12:18:26;;;;;;;28.10;26.00;;;9.70;99.90;;;;;;4866903;29;20040;-81
2023/12/17 12:20:53;;;;;;;28.83;26.45;;;9.70;99.90;;;;;;4899138;29;20092;-80
2023/12/17 12:23:21;;;;;;;29.90;27.45;;;9.70;99.90;;;;;;4886619;29;20041;-80
2023/12/17 12:25:48;;;;;;;29.65;27.27;;;9.60;99.90;;;;;;4894714;29;21306;-80
2023/12/17 12:28:20;;;;;;;29.08;26.67;;;9.50;99.90;;;;;;4889791;29;20072;-81
2023/12/17 12:30:50;;;;;;;30.70;28.30;;;9.50;99.90;;;;;;4898752;29;20052;-79
2023/12/17 12:33:18;;;;;;;30.33;27.95;;;9.60;99.90;;;;;;4884976;29;20056;-81
2023/12/17 12:35:48;;;;;;;29.45;27.27;;;9.60;99.90;;;;;;4883874;29;20168;-80
2023/12/17 12:38:25;;;;;;;31.35;28.95;;;9.60;99.90;;;;;;4906225;29;20040;-80
2023/12/17 12:40:55;;;;;;;34.55;31.63;;;9.70;99.90;;;;;;4879916;29;20087;-80